createdAt,value
2018-12-05T06:24:39.586Z,98380.66
2018-12-05T06:34:58.643Z,98399.27
2018-12-05T06:45:24.488Z,98417.94
2018-12-05T06:55:42.455Z,98427.75
2018-12-05T07:06:00.594Z,98420.58
2018-12-05T11:42:27.941Z,98359.94
2018-12-05T11:52:46.448Z,98348.56
2018-12-05T12:03:04.650Z,98345.21
2018-12-05T12:13:23.534Z,98336.69
2018-12-05T12:23:41.981Z,98330.07
2018-12-05T12:34:01.999Z,98329.28
2018-12-05T12:53:30.384Z,98322.91
2018-12-05T13:03:48.903Z,98315.55
2018-12-05T13:14:07.690Z,98315.45
2018-12-05T13:24:26.134Z,98313.81
2018-12-05T13:34:45.478Z,98292.19
2018-12-05T13:45:03.713Z,98293.55
2018-12-05T13:55:22.140Z,98284.88
2018-12-05T14:05:41.920Z,98279.77
2018-12-05T14:16:01.840Z,98276.35
2018-12-05T14:26:39.516Z,98269.55
2018-12-05T14:37:20.554Z,98264.73
2018-12-05T14:48:04.187Z,98255.64
2018-12-05T15:09:58.294Z,98255.41
2018-12-05T15:20:18.019Z,98266.14
2018-12-05T15:30:38.048Z,98258.14
2018-12-05T15:40:56.762Z,98265.01
2018-12-05T15:51:15.502Z,97963.81
2018-12-05T16:01:34.503Z,98249.95
2018-12-05T16:11:53.600Z,98243.40
2018-12-05T16:22:13.000Z,98236.78
2018-12-05T16:32:32.740Z,98231.27
2018-12-05T16:42:51.588Z,98232.07
2018-12-05T16:53:09.965Z,98232.05
2018-12-05T17:03:29.222Z,98221.00
2018-12-05T17:13:49.471Z,98215.91
2018-12-05T17:24:08.753Z,98218.06
2018-12-05T17:34:29.477Z,98217.58
2018-12-05T17:44:50.150Z,98205.81
2018-12-05T17:55:08.998Z,98203.97
2018-12-05T18:05:28.695Z,98198.72
2018-12-05T18:15:49.989Z,98192.89
2018-12-05T18:26:11.100Z,98171.48
2018-12-05T18:36:30.490Z,98154.71
2018-12-05T18:46:51.243Z,98158.05
2018-12-05T18:57:14.080Z,98150.03
2018-12-05T19:07:33.901Z,98147.47
2018-12-05T19:18:00.137Z,98131.17
2018-12-05T19:28:24.017Z,98110.57
2018-12-05T19:38:53.120Z,98109.32
2018-12-05T19:49:17.717Z,98101.71
2018-12-05T19:59:38.961Z,98077.33
2018-12-05T20:10:00.568Z,98068.92
2018-12-05T20:20:24.507Z,98058.66
2018-12-05T20:30:45.987Z,98050.59
2018-12-05T20:41:10.097Z,98023.69
2018-12-05T20:51:32.988Z,98008.98
2018-12-05T21:01:54.658Z,97996.50
2018-12-05T21:12:14.880Z,97975.63
2018-12-05T21:22:34.948Z,97969.61
2018-12-05T21:32:55.062Z,97950.84
2018-12-05T21:43:16.289Z,97938.65
2018-12-05T21:53:35.677Z,97926.63
2018-12-05T22:03:55.880Z,97917.55
2018-12-05T22:14:15.107Z,97881.05
2018-12-05T22:24:33.921Z,97912.05
2018-12-05T22:34:52.408Z,97895.41
2018-12-05T22:45:11.730Z,97891.86
2018-12-05T22:55:31.065Z,97876.72
2018-12-05T23:05:50.581Z,97851.20
2018-12-05T23:16:09.158Z,97832.75
2018-12-05T23:26:28.957Z,97819.89
2018-12-05T23:36:48.657Z,97798.06
2018-12-05T23:47:14.800Z,97783.37
2018-12-05T23:57:33.913Z,97762.97
